Time;durP1;ratioP1;P1;durP2;ratioP2;P2;SDS_P1;SDS_P2;PMS_P1;PMS_P2;Temp;Humidity;BMP_temperature;BMP_pressure;BME280_temperature;BME280_humidity;BME280_pressure;Samples;Min_cycle;Max_cycle;Signal;HPM_P1;HPM_P2
2023/01/02 00:00:55;;;;;;;4.28;1.45;;;;;;;11.51;68.56;97422.22;5040293;28;20402;-65
2023/01/02 00:03:22;;;;;;;2.65;1.50;;;;;;;11.53;68.84;97419.22;5039510;28;20046;-65
2023/01/02 00:05:49;;;;;;;3.53;1.50;;;;;;;11.58;68.40;97420.09;5029429;28;20045;-65
2023/01/02 00:08:16;;;;;;;4.65;1.58;;;;;;;11.68;67.83;97416.66;5032462;28;20548;-63
2023/01/02 00:10:43;;;;;;;4.10;1.90;;;;;;;11.67;68.09;97416.91;5038687;28;20044;-65
2023/01/02 00:13:10;;;;;;;5.95;1.60;;;;;;;11.70;67.87;97410.97;5038365;28;20041;-64
2023/01/02 00:15:36;;;;;;;3.47;1.50;;;;;;;11.69;68.08;97404.72;5037035;28;20416;-63
2023/01/02 00:18:03;;;;;;;3.35;1.25;;;;;;;11.83;67.16;97410.53;5048372;28;20306;-66
2023/01/02 00:20:29;;;;;;;6.38;1.80;;;;;;;11.84;67.31;97406.75;5043020;28;20076;-65
2023/01/02 00:22:56;;;;;;;4.70;2.08;;;;;;;11.93;66.62;97401.66;5048307;28;20454;-63
2023/01/02 00:25:22;;;;;;;5.43;1.63;;;;;;;11.93;66.84;97403.53;5048585;28;20075;-63
2023/01/02 00:27:49;;;;;;;9.65;2.78;;;;;;;11.90;66.89;97407.59;5047309;28;20033;-63
2023/01/02 00:30:16;;;;;;;4.88;1.30;;;;;;;11.90;67.00;97401.38;5038659;28;20041;-63
2023/01/02 00:32:42;;;;;;;5.88;2.03;;;;;;;11.93;66.80;97403.53;5037929;28;20084;-63
2023/01/02 00:35:09;;;;;;;6.05;2.47;;;;;;;11.93;66.70;97398.94;5046952;28;20049;-63
2023/01/02 00:37:35;;;;;;;4.63;1.40;;;;;;;11.95;66.48;97404.13;5048715;28;20049;-63
2023/01/02 00:40:02;;;;;;;5.22;2.20;;;;;;;11.97;66.86;97407.38;5055425;28;20079;-64
2023/01/02 00:42:29;;;;;;;4.40;1.52;;;;;;;11.86;67.29;97413.81;5026836;28;20493;-64
2023/01/02 00:44:56;;;;;;;5.78;1.50;;;;;;;11.76;67.56;97411.84;5035264;28;20044;-64
2023/01/02 00:47:23;;;;;;;4.22;1.50;;;;;;;11.70;68.05;97406.38;5047959;28;20130;-63
2023/01/02 00:49:50;;;;;;;3.97;1.15;;;;;;;11.66;68.62;97409.84;5048048;28;20416;-65
2023/01/02 00:52:16;;;;;;;8.05;1.98;;;;;;;11.55;69.25;97414.38;5045900;28;20266;-64
2023/01/02 00:54:43;;;;;;;7.28;1.75;;;;;;;11.55;69.57;97407.06;5047999;28;20492;-63
2023/01/02 00:57:09;;;;;;;6.10;2.20;;;;;;;11.53;69.83;97401.06;5047024;28;20079;-63
2023/01/02 00:59:36;;;;;;;7.18;2.08;;;;;;;11.61;69.48;97397.06;5046602;28;20068;-63
2023/01/02 01:02:02;;;;;;;5.32;2.05;;;;;;;11.60;69.59;97400.84;5043398;28;20084;-65
2023/01/02 01:04:32;;;;;;;4.63;1.52;;;;;;;11.75;68.89;97405.59;5047112;28;20037;-64
2023/01/02 01:06:58;;;;;;;3.85;1.42;;;;;;;11.79;68.72;97414.84;5047000;28;20037;-65
2023/01/02 01:09:25;;;;;;;5.32;1.42;;;;;;;11.85;68.67;97404.84;5063158;28;20090;-63
2023/01/02 01:11:52;;;;;;;5.28;1.60;;;;;;;11.85;68.78;97407.56;5055668;28;20053;-62
2023/01/02 01:14:18;;;;;;;6.32;2.00;;;;;;;11.80;68.95;97399.41;5028126;28;20155;-64
2023/01/02 01:16:45;;;;;;;5.55;1.67;;;;;;;11.79;69.29;97405.91;5036206;28;20074;-64
2023/01/02 01:19:12;;;;;;;3.70;1.55;;;;;;;11.66;69.88;97407.97;5045558;28;20044;-63
2023/01/02 01:21:39;;;;;;;3.53;1.45;;;;;;;11.75;69.40;97411.00;5034447;28;20044;-65
2023/01/02 01:24:06;;;;;;;7.28;1.52;;;;;;;11.67;69.93;97409.59;5026884;28;20501;-65
2023/01/02 01:26:32;;;;;;;4.93;1.75;;;;;;;11.51;70.33;97394.25;5027262;28;20094;-64
2023/01/02 01:28:59;;;;;;;5.50;1.50;;;;;;;11.49;70.41;97388.25;5045456;28;20532;-64
2023/01/02 01:31:25;;;;;;;6.55;1.83;;;;;;;11.40;71.19;97394.19;5036344;28;20139;-64
2023/01/02 01:33:52;;;;;;;5.97;1.80;;;;;;;11.28;71.83;97398.94;5027015;28;20128;-64
2023/01/02 01:36:22;;;;;;;5.10;2.10;;;;;;;11.20;71.84;97394.78;5041256;28;20104;-64
2023/01/02 01:38:49;;;;;;;7.13;1.80;;;;;;;11.23;71.66;97398.88;5047219;28;20041;-64
2023/01/02 01:41:19;;;;;;;5.82;1.60;;;;;;;11.21;71.86;97404.56;5026707;28;20037;-64
2023/01/02 01:43:58;;;;;;;4.85;1.58;;;;;;;11.15;72.13;97411.00;5038112;28;20452;-64
2023/01/02 01:46:28;;;;;;;3.47;1.75;;;;;;;11.04;72.91;97412.78;5037613;28;20116;-64
2023/01/02 01:49:24;;;;;;;5.80;1.98;;;;;;;11.02;72.85;97410.31;5045553;28;20037;-64
2023/01/02 01:52:08;;;;;;;5.20;1.60;;;;;;;11.03;72.68;97406.53;5045858;28;20049;-63
2023/01/02 01:54:37;;;;;;;5.00;1.85;;;;;;;11.11;72.42;97401.72;5045981;28;20045;-64
2023/01/02 01:57:13;;;;;;;4.18;1.60;;;;;;;11.13;72.31;97407.72;5042876;28;20558;-65
2023/01/02 01:59:40;;;;;;;5.05;1.85;;;;;;;11.11;72.43;97399.03;5033910;28;20504;-65
2023/01/02 02:02:07;;;;;;;6.68;1.85;;;;;;;11.12;72.47;97398.78;5030715;28;20080;-63
2023/01/02 02:04:34;;;;;;;6.07;1.95;;;;;;;11.19;71.90;97398.56;5026473;28;20041;-64
2023/01/02 02:07:01;;;;;;;5.30;2.72;;;;;;;11.18;71.93;97391.53;5026138;28;20042;-62
2023/01/02 02:09:36;;;;;;;8.07;2.33;;;;;;;11.19;71.88;97382.31;5058183;28;20044;-65
2023/01/02 02:12:03;;;;;;;7.03;1.70;;;;;;;11.27;71.27;97381.84;5052753;28;20046;-62
2023/01/02 02:14:29;;;;;;;7.97;1.73;;;;;;;11.27;71.49;97384.56;5027100;28;20120;-65
2023/01/02 02:17:15;;;;;;;4.55;1.70;;;;;;;11.34;70.83;97378.94;5025760;28;20052;-65
2023/01/02 02:20:32;;;;;;;4.82;1.88;;;;;;;11.33;70.75;97371.88;5041383;28;20091;-64
2023/01/02 02:23:25;;;;;;;5.82;1.65;;;;;;;11.34;70.94;97357.25;4985360;28;20054;-65
2023/01/02 02:26:10;;;;;;;4.63;1.38;;;;;;;11.35;70.41;97360.78;5002821;28;20053;-65
2023/01/02 02:28:47;;;;;;;4.18;1.35;;;;;;;11.42;69.92;97355.94;5029883;28;20052;-64
2023/01/02 02:31:19;;;;;;;5.55;1.60;;;;;;;11.43;69.79;97363.03;5026237;28;20077;-64
2023/01/02 02:33:57;;;;;;;5.13;2.10;;;;;;;11.51;69.60;97365.25;5045433;28;20482;-63
2023/01/02 02:36:42;;;;;;;4.97;2.67;;;;;;;11.50;69.34;97368.22;5042315;28;20357;-64
2023/01/02 02:39:31;;;;;;;2.92;1.20;;;;;;;11.52;69.25;97357.94;5036264;28;20044;-65
2023/01/02 02:42:20;;;;;;;4.55;2.10;;;;;;;11.45;69.26;97352.72;5025196;28;20084;-65
2023/01/02 02:45:00;;;;;;;6.80;1.90;;;;;;;11.45;69.09;97353.56;5025196;28;20469;-64
2023/01/02 02:47:47;;;;;;;4.63;1.80;;;;;;;11.43;69.26;97349.47;5025837;28;20073;-65
2023/01/02 02:50:36;;;;;;;6.57;1.90;;;;;;;11.47;69.17;97355.19;5032108;28;20428;-64
2023/01/02 02:53:28;;;;;;;4.47;1.67;;;;;;;11.49;68.88;97344.88;5031213;28;20582;-64
2023/01/02 02:55:58;;;;;;;4.18;1.60;;;;;;;11.49;69.00;97339.47;5038463;28;20040;-64
2023/01/02 02:58:28;;;;;;;6.03;1.85;;;;;;;11.43;68.71;97334.00;5044626;28;20037;-64
2023/01/02 03:01:11;;;;;;;4.75;1.92;;;;;;;11.44;68.46;97338.38;5041220;28;20049;-64
2023/01/02 03:03:38;;;;;;;5.03;1.75;;;;;;;11.51;68.12;97331.91;5033341;28;20045;-63
2023/01/02 03:06:16;;;;;;;5.63;2.53;;;;;;;11.50;68.58;97341.13;5045277;28;20175;-64
2023/01/02 03:09:06;;;;;;;8.80;1.50;;;;;;;11.49;68.38;97344.88;5054025;28;20098;-64
2023/01/02 03:11:44;;;;;;;3.58;1.40;;;;;;;11.45;68.42;97347.31;5057743;28;20045;-64
2023/01/02 03:14:44;;;;;;;6.25;1.50;;;;;;;11.44;68.36;97345.69;5044011;28;20428;-65
2023/01/02 03:17:24;;;;;;;3.67;1.70;;;;;;;11.28;69.33;97344.72;5044115;28;20123;-64
2023/01/02 03:19:57;;;;;;;5.88;1.50;;;;;;;11.29;68.73;97338.22;5043449;28;20104;-64
2023/01/02 03:22:31;;;;;;;4.28;1.30;;;;;;;11.34;68.79;97343.69;5036555;28;20041;-62
2023/01/02 03:24:58;;;;;;;3.70;1.63;;;;;;;11.45;67.42;97344.59;5045274;28;20049;-64
2023/01/02 03:27:32;;;;;;;4.20;1.88;;;;;;;11.55;66.84;97346.56;5045525;28;20041;-64
2023/01/02 03:30:04;;;;;;;2.85;1.50;;;;;;;11.50;66.88;97347.34;5044948;28;20539;-65
2023/01/02 03:32:42;;;;;;;3.38;1.70;;;;;;;11.51;66.89;97343.56;5027775;28;20705;-64
2023/01/02 03:35:16;;;;;;;3.55;1.50;;;;;;;11.42;66.94;97345.09;5024114;28;20056;-65
2023/01/02 03:37:48;;;;;;;3.10;1.58;;;;;;;11.43;66.68;97349.47;5023774;28;20250;-64
2023/01/02 03:40:23;;;;;;;5.15;1.85;;;;;;;11.32;67.26;97349.38;5025922;28;20046;-65
2023/01/02 03:43:11;;;;;;;3.70;1.50;;;;;;;11.46;65.99;97351.66;5032062;28;20044;-64
2023/01/02 03:45:44;;;;;;;5.75;1.70;;;;;;;11.53;65.54;97351.44;5044411;28;20061;-64
2023/01/02 03:48:20;;;;;;;5.13;2.17;;;;;;;11.65;64.97;97348.56;5044487;28;20041;-63
2023/01/02 03:50:52;;;;;;;3.92;1.50;;;;;;;11.66;64.86;97344.75;5043627;28;20099;-64
2023/01/02 03:53:20;;;;;;;4.13;1.20;;;;;;;11.66;64.54;97345.59;5044616;28;20057;-62
2023/01/02 03:56:14;;;;;;;3.05;1.25;;;;;;;11.61;64.69;97348.25;5044943;28;20493;-63
2023/01/02 03:59:00;;;;;;;4.05;1.13;;;;;;;11.61;64.67;97342.81;5042376;28;20052;-65
2023/01/02 04:01:57;;;;;;;3.08;1.17;;;;;;;11.51;64.93;97342.75;5032749;28;20634;-64
2023/01/02 04:04:43;;;;;;;8.07;2.55;;;;;;;11.72;63.73;97343.72;5031430;28;20056;-64
2023/01/02 04:07:29;;;;;;;4.88;1.85;;;;;;;11.72;63.67;97338.28;5044476;28;20108;-63
2023/01/02 04:09:58;;;;;;;4.15;1.40;;;;;;;11.76;63.48;97344.81;5047541;28;20060;-64
2023/01/02 04:12:29;;;;;;;5.32;1.23;;;;;;;11.81;63.29;97341.34;5043408;28;20052;-63
2023/01/02 04:15:04;;;;;;;3.92;1.27;;;;;;;11.79;63.46;97347.03;5044053;28;20080;-63
2023/01/02 04:17:38;;;;;;;4.18;1.50;;;;;;;11.72;63.67;97346.41;5044873;28;20048;-63
2023/01/02 04:20:09;;;;;;;4.07;1.38;;;;;;;11.68;63.82;97337.16;5034552;28;20128;-65
2023/01/02 04:22:44;;;;;;;7.22;1.52;;;;;;;11.66;64.01;97347.47;5026821;28;20049;-65
2023/01/02 04:25:14;;;;;;;5.25;1.67;;;;;;;11.58;64.09;97341.44;5030259;28;20120;-63
2023/01/02 04:27:47;;;;;;;6.63;1.50;;;;;;;11.56;64.16;97338.19;5047967;28;20501;-65
2023/01/02 04:30:14;;;;;;;7.22;1.70;;;;;;;11.49;64.58;97334.88;5047569;28;20044;-65
2023/01/02 04:32:42;;;;;;;3.97;2.05;;;;;;;11.34;65.03;97332.03;5029403;28;20057;-65
2023/01/02 04:35:21;;;;;;;3.97;1.35;;;;;;;11.38;64.93;97331.25;5027991;28;20045;-65
2023/01/02 04:37:48;;;;;;;5.20;1.63;;;;;;;11.31;65.05;97317.09;5026606;28;20037;-63
2023/01/02 04:40:22;;;;;;;4.15;1.40;;;;;;;11.28;65.56;97323.03;5028343;28;20516;-65
2023/01/02 04:42:49;;;;;;;3.70;1.60;;;;;;;11.22;65.73;97321.34;5044622;28;20196;-64
2023/01/02 04:45:16;;;;;;;3.90;1.35;;;;;;;11.13;66.27;97324.53;5047367;28;20404;-64
2023/01/02 04:47:43;;;;;;;3.88;1.33;;;;;;;11.15;66.10;97329.69;5043242;28;20040;-64
2023/01/02 04:50:10;;;;;;;6.38;1.40;;;;;;;11.14;66.09;97331.59;5048338;28;20522;-63
2023/01/02 04:52:36;;;;;;;6.00;1.70;;;;;;;11.13;66.30;97337.28;5040059;28;20051;-65
2023/01/02 04:55:07;;;;;;;3.90;1.35;;;;;;;11.10;66.45;97329.66;5032876;28;20128;-65
2023/01/02 04:57:34;;;;;;;5.72;1.50;;;;;;;11.08;66.48;97337.19;5038650;28;20497;-63
2023/01/02 05:00:02;;;;;;;3.72;1.38;;;;;;;11.10;66.36;97340.50;5033076;28;20037;-65
2023/01/02 05:02:34;;;;;;;4.85;1.50;;;;;;;11.03;66.67;97330.66;5038915;28;20110;-65
2023/01/02 05:05:00;;;;;;;5.50;1.50;;;;;;;11.01;67.09;97337.41;5047703;28;20355;-63
2023/01/02 05:07:27;;;;;;;3.80;1.50;;;;;;;10.91;67.19;97335.44;5038392;28;20041;-64
2023/01/02 05:09:53;;;;;;;2.72;1.13;;;;;;;10.83;67.57;97333.19;5066458;28;20052;-64
2023/01/02 05:12:20;;;;;;;3.80;1.40;;;;;;;10.75;67.92;97332.56;5054184;28;20535;-64
2023/01/02 05:14:46;;;;;;;4.63;1.40;;;;;;;10.68;68.18;97331.13;5046565;28;20045;-63
2023/01/02 05:17:13;;;;;;;5.75;1.60;;;;;;;10.65;68.50;97327.84;5046935;28;20581;-64
2023/01/02 05:19:39;;;;;;;3.22;1.38;;;;;;;10.59;68.67;97331.56;5039294;28;20128;-65
2023/01/02 05:24:51;;;;;;;4.55;1.50;;;;;;;10.61;68.50;97340.25;5026939;28;20508;-63
2023/01/02 05:27:17;;;;;;;6.60;1.98;;;;;;;10.68;68.33;97339.25;5026851;28;20562;-63
2023/01/02 05:29:44;;;;;;;4.05;1.55;;;;;;;10.68;68.04;97339.25;5034424;28;20575;-64
2023/01/02 05:32:10;;;;;;;5.97;1.55;;;;;;;10.80;67.47;97337.22;5031174;28;20114;-65
2023/01/02 05:34:37;;;;;;;3.35;1.48;;;;;;;10.79;67.62;97347.22;5027268;28;20428;-65
2023/01/02 05:37:03;;;;;;;3.80;1.95;;;;;;;10.84;67.54;97345.66;5025893;28;20061;-65
2023/01/02 05:39:30;;;;;;;4.47;1.20;;;;;;;10.66;68.20;97342.22;5027155;28;20041;-65
2023/01/02 05:41:56;;;;;;;6.43;1.50;;;;;;;10.58;68.52;97345.34;5036635;28;20167;-64
2023/01/02 05:44:23;;;;;;;4.38;1.45;;;;;;;10.45;69.20;97344.66;5044447;28;20045;-63
2023/01/02 05:46:49;;;;;;;4.43;1.40;;;;;;;10.40;69.52;97348.09;5046629;28;20515;-63
2023/01/02 05:49:16;;;;;;;3.03;1.40;;;;;;;10.28;69.95;97348.22;5047277;28;20041;-64
2023/01/02 05:51:42;;;;;;;5.00;1.60;;;;;;;10.28;70.00;97353.63;5030460;28;20108;-65
2023/01/02 05:54:09;;;;;;;5.65;2.17;;;;;;;10.35;69.58;97360.72;5034118;28;20068;-64
2023/01/02 05:56:36;;;;;;;4.32;1.45;;;;;;;10.41;69.01;97351.63;5042635;28;20052;-65
2023/01/02 05:59:06;;;;;;;4.78;1.63;;;;;;;10.51;68.44;97354.47;5045658;28;20045;-64
2023/01/02 06:01:33;;;;;;;2.65;1.08;;;;;;;10.56;68.08;97355.59;5036133;28;21524;-65
2023/01/02 06:03:59;;;;;;;2.95;1.27;;;;;;;10.52;68.32;97349.88;5029588;28;20041;-64
2023/01/02 06:06:32;;;;;;;7.07;1.67;;;;;;;10.53;68.66;97354.22;5044068;28;20052;-63
2023/01/02 06:08:59;;;;;;;3.47;1.30;;;;;;;10.65;67.87;97356.81;5052180;28;20037;-64
2023/01/02 06:11:27;;;;;;;3.60;1.48;;;;;;;10.60;68.00;97348.63;5054018;28;20182;-64
2023/01/02 06:13:54;;;;;;;4.05;1.50;;;;;;;10.53;68.04;97349.63;5043923;28;20047;-64
2023/01/02 06:16:21;;;;;;;4.72;1.67;;;;;;;10.47;68.57;97352.53;5044676;28;20573;-64
2023/01/02 06:18:49;;;;;;;2.97;1.05;;;;;;;10.47;68.13;97355.25;5046099;28;20041;-65
2023/01/02 06:21:17;;;;;;;5.47;2.20;;;;;;;10.45;68.01;97358.19;5040529;28;20382;-63
2023/01/02 06:23:44;;;;;;;5.15;1.90;;;;;;;10.45;68.24;97368.19;5035226;28;20048;-64
2023/01/02 06:26:18;;;;;;;3.95;1.85;;;;;;;10.21;69.44;97358.38;5045817;28;20170;-64
2023/01/02 06:28:49;;;;;;;4.82;1.50;;;;;;;10.20;69.38;97372.16;5044935;28;20465;-64
2023/01/02 06:31:18;;;;;;;5.93;1.48;;;;;;;9.97;70.41;97368.59;5020436;28;20076;-64
2023/01/02 06:33:45;;;;;;;3.72;1.67;;;;;;;9.94;70.35;97372.63;5026164;28;20047;-64
2023/01/02 06:36:14;;;;;;;6.85;1.75;;;;;;;10.00;70.04;97371.63;5031040;28;20060;-64
2023/01/02 06:38:42;;;;;;;3.80;1.33;;;;;;;10.00;70.37;97377.03;5045913;28;20041;-64
2023/01/02 06:41:09;;;;;;;3.42;1.50;;;;;;;10.00;70.43;97387.84;5044295;28;20132;-65
2023/01/02 06:43:41;;;;;;;3.20;1.40;;;;;;;9.98;70.79;97378.34;5054165;28;20453;-64
2023/01/02 06:46:09;;;;;;;5.03;1.52;;;;;;;9.93;71.19;97381.00;5059600;28;20462;-64
2023/01/02 06:48:36;;;;;;;4.82;1.70;;;;;;;9.93;71.27;97392.63;5046057;28;20049;-64
2023/01/02 06:51:07;;;;;;;5.28;1.90;;;;;;;9.92;71.45;97392.88;5043538;28;20319;-64
2023/01/02 06:53:35;;;;;;;5.30;1.88;;;;;;;9.84;71.73;97392.22;5045626;28;20515;-64
2023/01/02 06:56:02;;;;;;;7.40;2.08;;;;;;;9.83;71.93;97404.13;5045651;28;20041;-65
2023/01/02 06:58:31;;;;;;;3.58;1.40;;;;;;;9.90;71.14;97398.53;5044440;28;20033;-63
2023/01/02 07:01:03;;;;;;;6.00;1.45;;;;;;;9.91;70.84;97412.88;5043013;28;20036;-64
2023/01/02 07:03:30;;;;;;;4.78;1.48;;;;;;;9.94;70.45;97425.91;5045438;28;20428;-64
2023/01/02 07:06:05;;;;;;;4.15;1.58;;;;;;;10.02;69.91;97418.19;5044131;28;20483;-63
2023/01/02 07:08:32;;;;;;;5.85;1.70;;;;;;;10.09;68.92;97428.00;5044754;28;20041;-63
2023/01/02 07:11:17;;;;;;;4.65;1.80;;;;;;;10.11;68.45;97426.72;5044110;28;20053;-65
2023/01/02 07:13:45;;;;;;;5.07;1.45;;;;;;;10.09;68.73;97430.72;5045390;28;20037;-60
2023/01/02 07:16:13;;;;;;;3.97;1.48;;;;;;;10.10;68.64;97426.97;5044921;28;20568;-59
2023/01/02 07:18:40;;;;;;;6.43;1.45;;;;;;;10.08;68.60;97429.09;5045262;28;20063;-60
2023/01/02 07:21:09;;;;;;;4.97;1.70;;;;;;;10.07;68.82;97433.69;5044203;28;20411;-60
2023/01/02 07:23:35;;;;;;;3.35;1.50;;;;;;;10.04;69.00;97436.06;5045119;28;20538;-60
2023/01/02 07:26:04;;;;;;;4.57;1.63;;;;;;;9.62;71.41;97433.50;5036607;28;20156;-60
2023/01/02 07:28:31;;;;;;;5.75;1.48;;;;;;;9.55;71.96;97434.75;5033434;28;20055;-60
2023/01/02 07:31:00;;;;;;;4.72;1.65;;;;;;;9.62;70.50;97428.09;5035525;28;20136;-59
2023/01/02 07:33:28;;;;;;;5.28;1.60;;;;;;;9.54;71.21;97428.50;5020989;28;20049;-59
2023/01/02 07:35:59;;;;;;;4.75;1.70;;;;;;;9.49;71.07;97421.16;5019103;28;20053;-60
2023/01/02 07:38:26;;;;;;;5.03;1.40;;;;;;;9.54;71.15;97435.81;5021579;28;20412;-59
2023/01/02 07:40:53;;;;;;;7.40;2.42;;;;;;;9.50;71.59;97441.69;5035151;28;20071;-59
2023/01/02 07:43:20;;;;;;;6.20;2.05;;;;;;;9.57;71.06;97443.41;5033449;28;20057;-60
2023/01/02 07:45:47;;;;;;;5.82;2.50;;;;;;;9.48;71.63;97443.00;5041558;28;20805;-60
2023/01/02 07:48:17;;;;;;;6.32;2.45;;;;;;;9.43;71.84;97445.63;5028130;28;20039;-59
2023/01/02 07:50:44;;;;;;;5.40;2.15;;;;;;;9.42;72.35;97444.78;5031654;28;20048;-59
2023/01/02 07:53:10;;;;;;;6.07;2.10;;;;;;;9.41;71.71;97448.56;5044906;28;20048;-59
2023/01/02 07:55:37;;;;;;;9.35;2.03;;;;;;;9.43;71.80;97459.94;5033824;28;20080;-59
2023/01/02 07:58:03;;;;;;;5.15;2.28;;;;;;;9.38;72.28;97454.44;5044457;28;20052;-60
2023/01/02 08:00:30;;;;;;;7.95;2.35;;;;;;;9.30;72.35;97454.84;5035107;28;20060;-58
2023/01/02 08:02:56;;;;;;;6.78;2.10;;;;;;;9.43;70.81;97462.63;5022989;28;20356;-60
2023/01/02 08:05:23;;;;;;;6.75;1.90;;;;;;;9.48;70.75;97457.31;5037909;28;20056;-60
2023/01/02 08:07:49;;;;;;;8.55;2.63;;;;;;;9.52;70.71;97462.25;5032302;28;20110;-60
2023/01/02 08:10:16;;;;;;;4.47;1.75;;;;;;;9.62;69.09;97465.16;5041669;28;20046;-59
2023/01/02 08:12:43;;;;;;;7.68;2.60;;;;;;;9.69;68.69;97454.97;5029276;28;20041;-59
2023/01/02 08:15:10;;;;;;;6.90;2.13;;;;;;;9.71;69.00;97468.25;5040681;28;20950;-59
2023/01/02 08:17:36;;;;;;;4.15;1.83;;;;;;;9.74;68.42;97462.38;5041626;28;20120;-59
2023/01/02 08:20:04;;;;;;;7.30;1.85;;;;;;;9.86;67.78;97473.09;5045134;28;20053;-59
2023/01/02 08:22:34;;;;;;;8.50;3.03;;;;;;;9.91;68.05;97475.09;5031840;28;20452;-59
2023/01/02 08:25:01;;;;;;;3.53;1.60;;;;;;;10.04;66.93;97482.88;5025278;28;20128;-60
2023/01/02 08:27:27;;;;;;;5.00;2.10;;;;;;;10.16;66.55;97477.38;5056691;28;20123;-60
2023/01/02 08:29:54;;;;;;;4.80;2.13;;;;;;;10.30;65.74;97472.47;5048866;28;20053;-60
2023/01/02 08:32:20;;;;;;;3.20;1.48;;;;;;;10.43;65.45;97486.72;5031002;28;20041;-60
2023/01/02 08:34:47;;;;;;;5.97;2.45;;;;;;;10.35;65.70;97483.34;5037213;28;20048;-60
2023/01/02 08:37:14;;;;;;;5.65;1.48;;;;;;;10.53;65.14;97486.88;5044394;28;20428;-60
2023/01/02 08:39:40;;;;;;;9.27;3.53;;;;;;;10.54;64.94;97489.34;5041257;28;20088;-60
2023/01/02 08:42:07;;;;;;;4.65;2.05;;;;;;;10.57;65.24;97498.84;5039887;28;20041;-60
2023/01/02 08:44:36;;;;;;;4.88;1.90;;;;;;;10.61;65.20;97499.19;5047941;28;20045;-59
2023/01/02 08:47:06;;;;;;;7.75;2.20;;;;;;;10.65;64.88;97498.44;5047613;28;20524;-59
2023/01/02 08:49:32;;;;;;;4.80;1.63;;;;;;;10.56;65.03;97494.50;5037804;28;20060;-59
2023/01/02 08:51:59;;;;;;;4.88;2.15;;;;;;;10.53;65.67;97500.41;5046437;28;20311;-59
2023/01/02 08:54:26;;;;;;;3.67;1.63;;;;;;;10.51;65.69;97508.78;5030911;28;20053;-59
2023/01/02 08:56:52;;;;;;;6.10;1.88;;;;;;;10.44;66.19;97516.28;5028564;28;20049;-59
2023/01/02 08:59:22;;;;;;;5.47;1.73;;;;;;;10.36;66.81;97509.34;5047375;28;20045;-59
2023/01/02 09:01:49;;;;;;;6.43;1.70;;;;;;;10.44;66.37;97513.56;5025801;28;20052;-59
2023/01/02 09:04:16;;;;;;;3.97;1.83;;;;;;;10.52;66.17;97518.56;5028259;28;20045;-60
2023/01/02 09:06:43;;;;;;;8.45;2.15;;;;;;;10.64;66.72;97514.91;5037196;28;20056;-59
2023/01/02 09:09:12;;;;;;;4.28;1.70;;;;;;;10.73;66.61;97515.34;5034575;28;20053;-59
2023/01/02 09:11:48;;;;;;;6.45;1.75;;;;;;;10.78;65.78;97516.22;5038555;28;20033;-48
2023/01/02 09:14:16;;;;;;;5.25;1.88;;;;;;;10.85;65.66;97515.22;5028835;28;20050;-46
2023/01/02 09:16:43;;;;;;;6.32;1.88;;;;;;;10.89;65.33;97524.47;5037678;28;20765;-48
2023/01/02 09:19:10;;;;;;;5.15;2.33;;;;;;;10.95;66.38;97520.78;5042139;28;20048;-51
2023/01/02 09:21:36;;;;;;;7.15;2.53;;;;;;;11.00;65.21;97528.97;5007352;28;20496;-45
2023/01/02 09:24:04;;;;;;;8.18;2.00;;;;;;;11.07;65.39;97523.38;5007533;28;20104;-60
2023/01/02 09:26:30;;;;;;;5.63;2.15;;;;;;;11.11;65.60;97535.34;5025259;28;20047;-59
2023/01/02 09:28:57;;;;;;;4.82;1.63;;;;;;;11.20;65.42;97541.13;4998114;28;20049;-58
2023/01/02 09:31:24;;;;;;;6.55;2.00;;;;;;;11.14;65.67;97536.72;4998993;28;20172;-60
2023/01/02 09:33:52;;;;;;;4.47;1.73;;;;;;;11.10;66.31;97541.84;5025842;28;20044;-62
2023/01/02 09:36:19;;;;;;;11.00;2.30;;;;;;;11.01;65.77;97551.44;5037159;28;20044;-60
2023/01/02 09:38:53;;;;;;;5.55;1.98;;;;;;;11.03;65.53;97555.53;5036706;28;20052;-63
2023/01/02 09:41:25;;;;;;;5.65;2.13;;;;;;;11.09;65.35;97563.78;5027201;28;20147;-63
2023/01/02 09:43:59;;;;;;;6.03;2.35;;;;;;;11.17;65.11;97566.03;5045102;28;20044;-62
2023/01/02 09:46:45;;;;;;;4.82;1.60;;;;;;;11.27;64.10;97573.47;5034099;28;20075;-62
2023/01/02 09:49:15;;;;;;;4.70;1.80;;;;;;;11.34;63.06;97565.16;5033858;28;20033;-62
2023/01/02 09:51:43;;;;;;;8.38;1.98;;;;;;;11.15;63.97;97562.75;5033054;28;20129;-62
2023/01/02 09:54:18;;;;;;;4.63;1.75;;;;;;;11.08;63.77;97571.06;5039994;28;20603;-62
2023/01/02 09:56:48;;;;;;;7.63;2.10;;;;;;;10.99;64.26;97578.78;5037181;28;20652;-62
2023/01/02 09:59:28;;;;;;;3.47;1.38;;;;;;;11.02;64.27;97572.88;5047781;28;20033;-62
2023/01/02 10:01:55;;;;;;;5.18;1.45;;;;;;;11.04;62.82;97575.34;5023786;28;20052;-62
2023/01/02 10:04:40;;;;;;;6.53;1.85;;;;;;;11.09;63.11;97578.13;5029307;28;20115;-62
2023/01/02 10:07:16;;;;;;;10.30;2.25;;;;;;;11.13;63.39;97579.25;5022716;28;20034;-62
2023/01/02 10:09:52;;;;;;;4.68;1.90;;;;;;;11.17;64.43;97593.16;5040456;28;20073;-62
2023/01/02 10:12:32;;;;;;;7.72;1.80;;;;;;;11.22;64.03;97592.38;5023139;28;20190;-62
2023/01/02 10:15:04;;;;;;;6.10;2.10;;;;;;;11.23;63.88;97597.56;5029870;28;20055;-62
2023/01/02 10:17:41;;;;;;;3.47;1.50;;;;;;;11.31;63.41;97599.84;5040941;28;20055;-62
2023/01/02 10:20:26;;;;;;;6.18;2.00;;;;;;;11.40;63.61;97594.81;5044433;28;20508;-62
2023/01/02 10:23:14;;;;;;;6.10;1.70;;;;;;;11.47;62.75;97591.06;5025875;28;20059;-62
2023/01/02 10:25:54;;;;;;;5.25;1.77;;;;;;;11.51;63.25;97598.47;5034538;28;20067;-62
2023/01/02 10:28:33;;;;;;;6.18;1.90;;;;;;;11.60;62.61;97595.31;5030616;28;20049;-62
2023/01/02 10:31:04;;;;;;;5.57;2.05;;;;;;;11.75;61.85;97598.19;5033996;28;20040;-62
2023/01/02 10:33:51;;;;;;;7.28;1.90;;;;;;;11.90;61.79;97586.66;5037662;28;20045;-62
2023/01/02 10:36:25;;;;;;;5.55;2.00;;;;;;;12.03;61.61;97581.91;5032937;28;20065;-62
2023/01/02 10:38:57;;;;;;;5.75;1.80;;;;;;;12.12;61.98;97574.19;5042757;28;20049;-59
2023/01/02 10:41:25;;;;;;;8.90;2.33;;;;;;;12.15;61.81;97579.91;5042516;28;20133;-59
2023/01/02 10:43:57;;;;;;;4.97;2.00;;;;;;;12.24;60.44;97585.69;5030832;28;20052;-59
2023/01/02 10:46:28;;;;;;;6.75;2.25;;;;;;;12.26;59.69;97590.84;5039061;28;20554;-60
2023/01/02 10:48:56;;;;;;;8.95;2.45;;;;;;;12.37;59.37;97584.44;5041679;28;20041;-60
2023/01/02 10:51:22;;;;;;;6.25;2.33;;;;;;;12.50;59.28;97583.19;5023851;28;20136;-60
2023/01/02 10:54:04;;;;;;;6.10;1.70;;;;;;;12.61;58.85;97576.75;5036232;28;20052;-60
2023/01/02 10:56:33;;;;;;;6.70;3.35;;;;;;;12.73;59.00;97573.84;5037688;28;20053;-60
2023/01/02 10:59:01;;;;;;;7.35;2.75;;;;;;;12.82;59.14;97565.19;5035273;28;20042;-58
2023/01/02 11:01:28;;;;;;;6.55;2.60;;;;;;;12.91;57.41;97574.50;5037651;28;20123;-60
2023/01/02 11:03:55;;;;;;;5.43;1.38;;;;;;;12.96;57.53;97571.00;5042728;28;20131;-59
2023/01/02 11:06:25;;;;;;;5.60;1.85;;;;;;;13.03;57.59;97571.59;5046929;28;20090;-61
2023/01/02 11:08:56;;;;;;;;;;;;;;;13.16;56.90;97564.84;5050804;28;20057;-59
2023/01/02 11:11:24;;;;;;;5.10;2.10;;;;;;;13.26;56.66;97577.69;5038347;28;20582;-60
2023/01/02 11:13:56;;;;;;;6.25;1.80;;;;;;;13.46;55.37;97573.44;5028860;28;20123;-60
2023/01/02 11:16:25;;;;;;;5.22;2.05;;;;;;;13.49;55.49;97576.44;5034343;28;20119;-59
2023/01/02 11:18:54;;;;;;;5.07;1.60;;;;;;;13.58;55.56;97571.34;5043234;28;20053;-59
2023/01/02 11:21:30;;;;;;;4.78;1.30;;;;;;;13.86;53.64;97571.16;5020504;28;20507;-59
2023/01/02 11:24:00;;;;;;;9.77;3.40;;;;;;;14.18;52.80;97572.81;5036344;28;20063;-58
2023/01/02 11:26:29;;;;;;;6.93;1.42;;;;;;;14.46;50.58;97567.94;5052846;28;20045;-59
2023/01/02 11:29:06;;;;;;;7.03;1.50;;;;;;;14.74;48.82;97576.63;5030263;28;20056;-62
2023/01/02 11:31:33;;;;;;;7.47;1.45;;;;;;;14.83;48.32;97571.47;5036702;28;20409;-59
2023/01/02 11:34:09;;;;;;;7.10;1.83;;;;;;;14.87;48.62;97569.00;5018317;28;20049;-60
2023/01/02 11:36:35;;;;;;;5.20;1.42;;;;;;;14.90;47.63;97563.03;5015499;28;20564;-59
2023/01/02 11:39:20;;;;;;;5.72;2.28;;;;;;;14.94;47.97;97564.09;5003874;28;20130;-60
2023/01/02 11:44:47;;;;;;;7.65;1.52;;;;;;;14.85;48.50;97585.63;5045951;28;20099;-60
2023/01/02 11:47:15;;;;;;;5.63;2.15;;;;;;;14.77;48.92;97581.56;5046588;28;20052;-60
2023/01/02 11:49:44;;;;;;;6.43;1.77;;;;;;;14.81;48.27;97588.13;5044916;28;20045;-59
2023/01/02 11:52:20;;;;;;;4.55;1.30;;;;;;;14.78;48.70;97587.84;5035769;28;20569;-58
2023/01/02 11:54:55;;;;;;;4.70;1.20;;;;;;;14.79;48.38;97570.41;5009345;28;20578;-59
2023/01/02 11:57:43;;;;;;;5.95;1.75;;;;;;;14.83;48.48;97571.47;5015548;28;20056;-59